createdAt,value
2022-11-23T00:01:53.316Z,29.55
2022-11-23T00:04:38.656Z,29.70
2022-11-23T00:07:24.245Z,30.05
2022-11-23T00:10:10.034Z,31.88
2022-11-23T00:12:55.675Z,28.42
2022-11-23T00:15:41.286Z,28.52
2022-11-23T00:18:26.665Z,28.05
2022-11-23T00:21:17.082Z,31.13
2022-11-23T00:24:02.776Z,28.55
2022-11-23T00:26:47.897Z,29.17
2022-11-23T00:29:33.670Z,29.38
2022-11-23T00:32:18.945Z,28.30
2022-11-23T00:35:04.635Z,30.38
2022-11-23T00:37:50.639Z,29.73
2022-11-23T00:40:35.556Z,29.10
2022-11-23T00:43:21.397Z,30.67
2022-11-23T00:46:10.180Z,29.20
2022-11-23T00:48:57.466Z,29.17
2022-11-23T00:51:43.904Z,29.95
2022-11-23T00:54:29.365Z,29.80
2022-11-23T00:57:14.522Z,30.38
2022-11-23T01:00:01.083Z,29.33
2022-11-23T01:02:46.290Z,28.70
2022-11-23T01:05:36.388Z,30.10
2022-11-23T01:08:21.497Z,30.20
2022-11-23T01:11:10.305Z,29.10
2022-11-23T01:13:55.800Z,28.98
2022-11-23T01:16:42.114Z,29.27
2022-11-23T01:19:28.568Z,28.90
2022-11-23T01:22:14.357Z,27.90
2022-11-23T01:25:00.986Z,29.42
2022-11-23T01:27:48.240Z,29.48
2022-11-23T01:30:34.492Z,27.42
2022-11-23T01:33:20.323Z,29.73
2022-11-23T01:36:18.750Z,28.17
2022-11-23T01:39:05.222Z,28.20
2022-11-23T01:41:50.318Z,29.23
2022-11-23T01:44:38.451Z,28.30
2022-11-23T01:47:23.709Z,29.42
2022-11-23T01:50:08.943Z,29.60
2022-11-23T01:52:54.702Z,29.58
2022-11-23T01:55:41.020Z,28.00
2022-11-23T01:58:29.332Z,28.92
2022-11-23T02:01:15.044Z,28.50
2022-11-23T02:04:01.667Z,27.05
2022-11-23T02:06:47.874Z,27.70
2022-11-23T02:09:35.293Z,28.45
2022-11-23T02:12:20.670Z,27.90
2022-11-23T02:15:06.290Z,28.63
2022-11-23T02:17:51.739Z,27.65
2022-11-23T02:20:37.293Z,28.83
2022-11-23T02:23:53.754Z,28.33
2022-11-23T02:26:39.168Z,27.92
2022-11-23T02:29:26.691Z,27.33
2022-11-23T02:32:11.906Z,27.08
2022-11-23T02:34:57.028Z,27.17
2022-11-23T02:37:43.164Z,29.00
2022-11-23T02:40:32.801Z,28.55
2022-11-23T02:43:18.234Z,28.23
2022-11-23T02:46:05.117Z,27.90
2022-11-23T02:48:50.378Z,27.00
2022-11-23T02:51:35.789Z,29.40
2022-11-23T02:54:21.371Z,26.75
2022-11-23T02:57:07.126Z,27.98
2022-11-23T02:59:52.593Z,28.55
2022-11-23T03:02:38.216Z,27.30
2022-11-23T03:05:23.317Z,26.52
2022-11-23T03:08:09.967Z,26.95
2022-11-23T03:10:56.372Z,27.88
2022-11-23T03:13:42.849Z,26.75
2022-11-23T03:16:27.982Z,27.02
2022-11-23T03:19:13.051Z,27.55
2022-11-23T03:21:58.422Z,26.75
2022-11-23T03:24:43.918Z,26.95
2022-11-23T03:27:34.868Z,26.55
2022-11-23T03:30:20.272Z,28.10
2022-11-23T03:33:06.849Z,27.52
2022-11-23T03:35:53.944Z,26.65
2022-11-23T03:38:43.254Z,27.40
2022-11-23T03:44:28.135Z,26.55
2022-11-23T03:47:13.469Z,26.77
2022-11-23T03:49:58.674Z,27.85
2022-11-23T03:52:43.988Z,26.35
2022-11-23T03:55:33.915Z,25.50
2022-11-23T03:58:20.192Z,25.08
2022-11-23T04:01:05.749Z,26.98
2022-11-23T04:03:51.205Z,25.00
2022-11-23T04:06:41.554Z,27.42
2022-11-23T04:09:37.359Z,27.33
2022-11-23T04:12:22.634Z,26.50
2022-11-23T04:15:08.575Z,26.67
2022-11-23T04:17:55.262Z,25.48
2022-11-23T04:20:40.465Z,26.88
2022-11-23T04:23:25.918Z,27.90
2022-11-23T04:26:12.798Z,26.27
2022-11-23T04:29:01.014Z,26.60
2022-11-23T04:31:47.731Z,27.38
2022-11-23T04:34:35.939Z,25.30
2022-11-23T04:37:22.929Z,24.67
2022-11-23T04:40:09.159Z,26.15
2022-11-23T04:43:01.881Z,25.50
2022-11-23T04:45:50.203Z,26.48
2022-11-23T04:48:42.177Z,25.55
2022-11-23T04:51:27.634Z,26.45
2022-11-23T04:54:13.448Z,25.73
2022-11-23T04:57:06.322Z,26.08
2022-11-23T04:59:52.536Z,27.10
2022-11-23T05:02:38.093Z,26.83
2022-11-23T05:05:42.922Z,25.63
2022-11-23T05:08:29.120Z,26.50
2022-11-23T05:11:40.675Z,26.77
2022-11-23T05:14:27.876Z,25.75
2022-11-23T05:17:13.043Z,26.70
2022-11-23T05:20:00.026Z,25.65
2022-11-23T05:22:47.124Z,24.95
2022-11-23T05:25:35.605Z,25.75
2022-11-23T05:28:39.577Z,25.25
2022-11-23T05:31:26.400Z,25.02
2022-11-23T05:34:11.655Z,26.95
2022-11-23T05:37:03.929Z,24.63
2022-11-23T05:39:49.238Z,25.52
2022-11-23T05:42:34.680Z,24.58
2022-11-23T05:45:28.689Z,24.58
2022-11-23T05:48:16.221Z,25.40
2022-11-23T05:51:14.464Z,25.33
2022-11-23T05:54:04.077Z,25.77
2022-11-23T05:56:56.668Z,25.67
2022-11-23T05:59:49.894Z,25.17
2022-11-23T06:02:41.214Z,22.88
2022-11-23T06:05:28.033Z,24.10
2022-11-23T06:08:13.069Z,24.40
2022-11-23T06:11:01.365Z,25.80
2022-11-23T06:13:48.565Z,24.42
2022-11-23T06:16:35.262Z,25.90
2022-11-23T06:19:32.715Z,25.35
2022-11-23T06:22:19.704Z,25.40
2022-11-23T06:25:20.264Z,24.58
2022-11-23T06:28:28.992Z,24.80
2022-11-23T06:31:16.083Z,23.27
2022-11-23T06:34:01.461Z,25.80
2022-11-23T06:36:49.940Z,23.45
2022-11-23T06:39:35.784Z,23.75
2022-11-23T06:42:38.337Z,24.08
2022-11-23T06:45:28.378Z,25.10
2022-11-23T06:48:17.045Z,23.40
2022-11-23T06:51:05.474Z,24.60
2022-11-23T06:53:50.746Z,24.20
2022-11-23T06:56:37.458Z,24.45
2022-11-23T06:59:22.894Z,23.15
2022-11-23T07:02:09.475Z,25.42
2022-11-23T07:04:55.090Z,24.73
2022-11-23T07:07:40.728Z,25.27
2022-11-23T07:10:33.027Z,23.98
2022-11-23T07:13:19.754Z,25.52
2022-11-23T07:16:06.110Z,25.08
2022-11-23T07:18:51.430Z,24.23
2022-11-23T07:21:36.809Z,24.40
2022-11-23T07:24:22.265Z,24.95
2022-11-23T07:27:07.463Z,24.50
2022-11-23T07:29:53.528Z,22.70
2022-11-23T07:32:39.001Z,24.77
2022-11-23T07:35:24.317Z,24.83
2022-11-23T07:38:10.389Z,23.83
2022-11-23T07:40:55.939Z,24.05
2022-11-23T07:44:00.266Z,23.75
2022-11-23T07:46:45.690Z,25.33
2022-11-23T07:49:31.326Z,23.13
2022-11-23T07:52:16.316Z,24.88
2022-11-23T07:55:01.842Z,24.48
2022-11-23T07:57:46.979Z,24.67
2022-11-23T08:00:32.505Z,24.15
2022-11-23T08:03:33.297Z,25.23
2022-11-23T08:06:18.631Z,24.77
2022-11-23T08:09:03.959Z,25.35
2022-11-23T08:11:49.360Z,24.40
2022-11-23T08:14:35.473Z,25.98
2022-11-23T08:17:21.066Z,23.88
2022-11-23T08:20:06.721Z,23.75
2022-11-23T08:22:52.710Z,25.02
2022-11-23T08:25:37.900Z,23.13
2022-11-23T08:28:23.470Z,25.13
2022-11-23T08:31:11.331Z,24.23
2022-11-23T08:34:00.288Z,22.73
2022-11-23T08:36:48.478Z,23.33
2022-11-23T08:39:33.674Z,24.10
2022-11-23T08:42:19.084Z,25.40
2022-11-23T08:45:05.568Z,23.35
2022-11-23T08:47:51.086Z,25.20
2022-11-23T08:50:37.070Z,24.20
2022-11-23T08:53:22.871Z,23.98
2022-11-23T08:56:08.451Z,23.25
2022-11-23T08:58:53.945Z,23.67
2022-11-23T09:01:39.725Z,23.48
2022-11-23T09:04:27.564Z,22.55
2022-11-23T09:07:13.229Z,23.98
2022-11-23T09:09:58.322Z,23.67
2022-11-23T09:12:43.883Z,24.58
2022-11-23T09:15:29.241Z,24.95
2022-11-23T09:18:15.044Z,22.75
2022-11-23T09:21:03.966Z,23.90
2022-11-23T09:23:49.398Z,23.13
2022-11-23T09:26:34.891Z,23.75
2022-11-23T09:29:20.167Z,23.08
2022-11-23T09:32:05.598Z,23.33
2022-11-23T09:34:50.805Z,22.63
2022-11-23T09:37:36.422Z,23.58
2022-11-23T09:40:21.538Z,23.23
2022-11-23T09:43:40.523Z,21.45
2022-11-23T09:46:37.035Z,21.92
2022-11-23T09:49:31.306Z,19.77
2022-11-23T09:52:20.990Z,20.42
2022-11-23T09:55:16.797Z,21.08
2022-11-23T09:58:05.362Z,21.83
2022-11-23T10:00:59.259Z,20.45
2022-11-23T10:03:49.129Z,20.50
2022-11-23T10:06:40.141Z,21.30
2022-11-23T10:09:46.146Z,21.38
2022-11-23T10:12:38.583Z,21.15
2022-11-23T10:15:30.893Z,20.13
2022-11-23T10:18:36.157Z,20.05
2022-11-23T10:21:39.784Z,20.13
2022-11-23T10:24:32.767Z,21.77
2022-11-23T10:27:21.413Z,19.15
2022-11-23T10:30:12.550Z,19.90
2022-11-23T10:33:13.713Z,18.80
2022-11-23T10:35:58.915Z,17.98
2022-11-23T10:38:45.235Z,18.58
2022-11-23T10:41:30.885Z,16.90
2022-11-23T10:44:34.567Z,18.60
2022-11-23T10:47:51.489Z,19.15
2022-11-23T10:50:40.749Z,19.48
2022-11-23T10:53:28.386Z,19.20
2022-11-23T10:56:14.432Z,19.00
2022-11-23T10:58:59.804Z,18.05
2022-11-23T11:02:00.593Z,17.73
2022-11-23T11:04:47.159Z,17.45
2022-11-23T11:07:36.842Z,18.58
2022-11-23T11:10:43.931Z,18.25
2022-11-23T11:13:46.233Z,20.67
2022-11-23T11:16:36.948Z,17.40
2022-11-23T11:19:35.821Z,20.13
2022-11-23T11:22:37.773Z,19.20
2022-11-23T11:25:42.259Z,19.67
2022-11-23T11:28:36.333Z,19.08
2022-11-23T11:31:39.213Z,20.77
2022-11-23T11:34:34.321Z,20.35
2022-11-23T11:37:38.835Z,20.40
2022-11-23T11:40:31.914Z,19.67
2022-11-23T11:43:34.688Z,20.40
2022-11-23T11:46:30.328Z,20.00
2022-11-23T11:49:23.355Z,19.95
2022-11-23T11:52:21.899Z,19.15
2022-11-23T11:55:36.314Z,19.17
2022-11-23T11:58:25.316Z,18.15
2022-11-23T12:01:28.898Z,18.42
2022-11-23T12:04:25.994Z,18.08
2022-11-23T12:07:17.797Z,19.38
2022-11-23T12:10:18.823Z,17.52
2022-11-23T12:13:04.214Z,19.02
2022-11-23T12:16:02.740Z,18.50
2022-11-23T12:18:51.340Z,16.63
2022-11-23T12:21:54.353Z,17.17
2022-11-23T12:24:59.333Z,17.85
2022-11-23T12:28:10.513Z,16.73
2022-11-23T12:31:13.735Z,18.40
2022-11-23T12:34:02.007Z,18.63
2022-11-23T12:37:08.935Z,18.17
2022-11-23T12:40:12.221Z,18.98
2022-11-23T12:43:01.451Z,17.92
2022-11-23T12:46:11.282Z,14.32
2022-11-23T12:49:21.284Z,16.92
2022-11-23T12:52:15.698Z,16.90
2022-11-23T12:55:19.466Z,16.98
2022-11-23T12:58:28.623Z,17.35
2022-11-23T13:01:39.925Z,17.80
2022-11-23T13:04:44.354Z,16.65
2022-11-23T13:08:11.964Z,17.15
2022-11-23T13:11:37.581Z,16.95
2022-11-23T13:14:35.715Z,16.05
2022-11-23T13:17:47.811Z,16.58
2022-11-23T13:20:49.757Z,16.58
2022-11-23T13:23:39.354Z,16.63
2022-11-23T13:26:29.593Z,17.40
2022-11-23T13:29:54.119Z,17.35
2022-11-23T13:32:39.797Z,16.35
2022-11-23T13:35:27.839Z,17.67
2022-11-23T13:38:16.170Z,18.02
2022-11-23T13:41:01.498Z,18.73
2022-11-23T13:43:46.913Z,18.17
2022-11-23T13:46:33.347Z,17.45
2022-11-23T13:49:45.252Z,18.08
2022-11-23T13:52:31.617Z,18.38
2022-11-23T13:55:27.722Z,17.70
2022-11-23T13:58:24.874Z,17.42
2022-11-23T14:01:10.769Z,17.88
2022-11-23T14:03:56.109Z,18.67
2022-11-23T14:06:47.875Z,17.45
2022-11-23T14:09:44.144Z,17.90
2022-11-23T14:12:52.070Z,16.65
2022-11-23T14:15:40.860Z,16.73
2022-11-23T14:18:52.251Z,15.98
2022-11-23T14:21:50.995Z,17.52
2022-11-23T14:25:02.428Z,15.23
2022-11-23T14:27:58.920Z,15.65
2022-11-23T14:30:54.885Z,14.88
2022-11-23T14:34:01.548Z,15.70
2022-11-23T14:37:07.264Z,17.17
2022-11-23T14:39:58.689Z,15.70
2022-11-23T14:42:51.033Z,17.20
2022-11-23T14:45:36.909Z,16.75
2022-11-23T14:48:30.960Z,16.58
2022-11-23T14:51:22.942Z,16.50
2022-11-23T14:54:09.965Z,16.13
2022-11-23T14:56:59.476Z,16.10
2022-11-23T14:59:48.973Z,16.17
2022-11-23T15:02:37.643Z,15.18
2022-11-23T15:05:29.961Z,15.18
2022-11-23T15:08:30.136Z,16.00
2022-11-23T15:11:21.415Z,15.57
2022-11-23T15:14:25.177Z,17.02
2022-11-23T15:17:15.853Z,15.95
2022-11-23T15:20:02.123Z,15.27
2022-11-23T15:22:47.418Z,16.52
2022-11-23T15:25:33.186Z,15.93
2022-11-23T15:28:23.495Z,15.57
2022-11-23T15:31:35.518Z,16.55
2022-11-23T15:34:21.257Z,16.10
2022-11-23T15:37:10.105Z,15.55
2022-11-23T15:39:57.105Z,16.75
2022-11-23T15:42:45.062Z,16.05
2022-11-23T15:45:35.476Z,16.63
2022-11-23T15:48:29.273Z,16.13
2022-11-23T15:51:30.374Z,15.48
2022-11-23T15:54:21.082Z,16.20
2022-11-23T15:57:21.732Z,14.52
2022-11-23T16:00:09.451Z,16.92
2022-11-23T16:03:20.984Z,15.98
2022-11-23T16:06:12.524Z,15.37
2022-11-23T16:08:58.323Z,16.20
2022-11-23T16:11:51.937Z,16.60
2022-11-23T16:14:37.899Z,14.60
2022-11-23T16:17:26.222Z,16.60
2022-11-23T16:20:15.052Z,15.50
2022-11-23T16:23:00.946Z,15.27
2022-11-23T16:25:53.803Z,14.98
2022-11-23T16:28:48.260Z,16.27
2022-11-23T16:31:38.212Z,17.67
2022-11-23T16:34:24.315Z,15.60
2022-11-23T16:37:09.966Z,18.05
2022-11-23T16:39:55.081Z,16.60
2022-11-23T16:42:41.140Z,16.70
2022-11-23T16:45:27.341Z,16.23
2022-11-23T16:48:28.029Z,18.25
2022-11-23T16:51:14.620Z,16.58
2022-11-23T16:54:20.358Z,16.88
2022-11-23T16:57:05.794Z,16.25
2022-11-23T16:59:51.073Z,16.83
2022-11-23T17:02:36.615Z,18.52
2022-11-23T17:05:24.046Z,18.30
2022-11-23T17:08:09.862Z,17.25
2022-11-23T17:10:56.045Z,19.70
2022-11-23T17:13:42.345Z,18.50
2022-11-23T17:16:27.789Z,21.80
2022-11-23T17:19:17.826Z,21.65
2022-11-23T17:22:03.559Z,23.13
2022-11-23T17:24:50.038Z,20.73
2022-11-23T17:27:37.665Z,22.25
2022-11-23T17:30:22.872Z,21.55
2022-11-23T17:33:12.151Z,23.08
2022-11-23T17:35:59.831Z,23.48
2022-11-23T17:38:47.160Z,23.95
2022-11-23T17:41:32.588Z,23.40
2022-11-23T17:44:18.165Z,22.88
2022-11-23T17:47:03.845Z,24.05
2022-11-23T17:49:49.021Z,24.00
2022-11-23T17:52:34.452Z,22.75
2022-11-23T17:55:19.771Z,25.55
2022-11-23T17:58:05.758Z,24.20
2022-11-23T18:00:51.159Z,22.98
2022-11-23T18:03:36.701Z,24.27
2022-11-23T18:06:23.894Z,24.10
2022-11-23T18:09:11.659Z,24.50
2022-11-23T18:11:57.145Z,23.35
2022-11-23T18:14:42.287Z,24.25
2022-11-23T18:17:27.640Z,24.08
2022-11-23T18:20:13.292Z,25.90
2022-11-23T18:22:58.360Z,23.42
2022-11-23T18:25:45.580Z,23.50
2022-11-23T18:28:31.194Z,26.60
2022-11-23T18:31:16.751Z,25.08
2022-11-23T18:34:05.401Z,25.95
2022-11-23T18:36:50.788Z,25.73
2022-11-23T18:39:36.131Z,27.02
2022-11-23T18:42:21.520Z,25.10
2022-11-23T18:45:08.641Z,26.20
2022-11-23T18:47:54.285Z,24.77
2022-11-23T18:50:40.228Z,24.67
2022-11-23T18:53:25.435Z,26.70
2022-11-23T18:56:10.912Z,26.42
2022-11-23T18:58:56.278Z,25.40
2022-11-23T19:01:41.835Z,27.95
2022-11-23T19:04:27.017Z,28.33
2022-11-23T19:07:12.376Z,26.20
2022-11-23T19:09:57.697Z,27.75
2022-11-23T19:12:43.673Z,29.27
2022-11-23T19:15:29.361Z,26.60
2022-11-23T19:18:14.524Z,27.40
2022-11-23T19:20:59.844Z,28.08
2022-11-23T19:23:49.119Z,29.38
2022-11-23T19:26:34.718Z,28.35
2022-11-23T19:29:23.751Z,28.83
2022-11-23T19:32:10.092Z,28.83
2022-11-23T19:34:55.372Z,27.80
2022-11-23T19:37:40.804Z,28.27
2022-11-23T19:40:26.470Z,29.08
2022-11-23T19:43:11.784Z,29.52
2022-11-23T19:45:58.787Z,29.60
2022-11-23T19:48:44.105Z,27.17
2022-11-23T19:51:29.324Z,29.05
2022-11-23T19:54:14.537Z,31.10
2022-11-23T19:56:59.648Z,30.40
2022-11-23T19:59:45.929Z,31.73
2022-11-23T20:02:31.106Z,32.10
2022-11-23T20:05:16.600Z,33.05
2022-11-23T20:08:01.859Z,30.73
2022-11-23T20:10:47.108Z,33.80
2022-11-23T20:13:33.269Z,32.00
2022-11-23T20:16:19.964Z,32.13
2022-11-23T20:19:07.460Z,32.78
2022-11-23T20:21:53.295Z,31.75
2022-11-23T20:24:38.403Z,33.08
2022-11-23T20:27:23.440Z,33.25
2022-11-23T20:30:09.047Z,33.22
2022-11-23T20:32:54.366Z,32.90
2022-11-23T20:35:40.560Z,33.50
2022-11-23T20:38:25.595Z,31.48
2022-11-23T20:41:34.131Z,32.78
2022-11-23T20:44:20.820Z,32.28
2022-11-23T20:47:06.320Z,32.67
2022-11-23T20:49:51.534Z,32.83
2022-11-23T20:52:37.053Z,33.03
2022-11-23T20:55:25.377Z,34.30
2022-11-23T20:58:10.802Z,33.97
2022-11-23T21:00:56.586Z,31.58
2022-11-23T21:03:43.213Z,32.97
2022-11-23T21:06:28.692Z,31.65
2022-11-23T21:09:13.951Z,32.42
2022-11-23T21:12:17.483Z,32.35
2022-11-23T21:15:02.754Z,32.72
2022-11-23T21:17:47.774Z,33.53
2022-11-23T21:20:36.581Z,33.25
2022-11-23T21:23:22.103Z,32.45
2022-11-23T21:26:07.496Z,32.72
2022-11-23T21:28:53.341Z,33.20
2022-11-23T21:31:41.116Z,34.15
2022-11-23T21:34:28.176Z,32.65
2022-11-23T21:37:13.688Z,31.00
2022-11-23T21:39:59.004Z,34.58
2022-11-23T21:42:44.697Z,31.90
2022-11-23T21:45:30.886Z,33.28
2022-11-23T21:48:16.071Z,33.40
2022-11-23T21:51:07.738Z,33.55
2022-11-23T21:53:54.085Z,33.92
2022-11-23T21:56:39.364Z,31.90
2022-11-23T21:59:24.713Z,34.08
2022-11-23T22:02:12.126Z,33.78
2022-11-23T22:04:57.726Z,33.85
2022-11-23T22:07:55.140Z,37.53
2022-11-23T22:10:48.130Z,32.65
2022-11-23T22:13:36.889Z,34.92
2022-11-23T22:16:25.235Z,33.27
2022-11-23T22:19:12.081Z,33.47
2022-11-23T22:21:57.482Z,33.92
2022-11-23T22:24:42.611Z,33.88
2022-11-23T22:27:27.967Z,33.75
2022-11-23T22:30:13.541Z,34.35
2022-11-23T22:32:59.028Z,35.22
2022-11-23T22:35:44.292Z,35.63
2022-11-23T22:38:32.257Z,35.67
2022-11-23T22:41:17.729Z,37.47
2022-11-23T22:44:04.851Z,34.55
2022-11-23T22:46:50.294Z,37.97
2022-11-23T22:49:35.437Z,37.33
2022-11-23T22:52:24.913Z,38.92
2022-11-23T22:55:10.435Z,37.90
2022-11-23T22:57:55.804Z,38.08
2022-11-23T23:00:41.216Z,38.67
2022-11-23T23:03:26.532Z,37.67
2022-11-23T23:06:20.437Z,38.28
2022-11-23T23:09:07.874Z,38.00
2022-11-23T23:11:53.291Z,39.22
2022-11-23T23:14:38.426Z,39.25
2022-11-23T23:17:24.072Z,40.25
2022-11-23T23:20:09.772Z,40.10
2022-11-23T23:22:55.191Z,38.38
2022-11-23T23:25:40.432Z,38.53
2022-11-23T23:28:25.815Z,40.08
2022-11-23T23:31:14.200Z,40.30
2022-11-23T23:33:59.918Z,40.85
2022-11-23T23:36:45.171Z,41.88
2022-11-23T23:39:30.720Z,42.28
2022-11-23T23:42:15.982Z,40.92
2022-11-23T23:45:02.830Z,40.55
2022-11-23T23:47:48.230Z,38.45
2022-11-23T23:50:33.438Z,44.33
2022-11-23T23:53:18.893Z,40.75
2022-11-23T23:56:07.495Z,41.40
2022-11-23T23:58:56.568Z,40.75
